Time;durP1;ratioP1;P1;durP2;ratioP2;P2;SDS_P1;SDS_P2;PMS_P1;PMS_P2;Temp;Humidity;BMP_temperature;BMP_pressure;BME280_temperature;BME280_humidity;BME280_pressure;Samples;Min_cycle;Max_cycle;Signal;HPM_P1;HPM_P2
2022/09/07 00:00:40;;;;;;;;;1.00;1.00;;;;;20.62;67.05;100323.94;5021693;28;45436;-78
2022/09/07 00:03:06;;;;;;;;;2.00;1.00;;;;;20.64;67.41;100327.44;5018965;28;45384;-78
2022/09/07 00:05:33;;;;;;;;;2.00;2.00;;;;;20.71;67.37;100349.44;5020361;28;45305;-78
2022/09/07 00:07:59;;;;;;;;;2.00;1.00;;;;;20.69;68.01;100341.53;5022254;28;45471;-74
2022/09/07 00:10:25;;;;;;;;;2.00;1.00;;;;;20.62;67.65;100334.56;5021428;28;45966;-78
2022/09/07 00:12:52;;;;;;;;;1.67;1.00;;;;;20.56;68.49;100318.69;5021491;28;45519;-73
2022/09/07 00:15:18;;;;;;;;;1.00;1.00;;;;;20.54;68.04;100325.78;5020097;28;45566;-79
2022/09/07 00:17:43;;;;;;;;;1.00;1.00;;;;;20.34;68.32;100299.56;5021574;28;45469;-78
2022/09/07 00:20:10;;;;;;;;;2.00;1.67;;;;;20.45;68.77;100326.78;5021305;28;46314;-78
2022/09/07 00:22:36;;;;;;;;;1.00;1.00;;;;;20.32;68.60;100307.53;5021049;28;45364;-78
2022/09/07 00:25:02;;;;;;;;;1.00;1.00;;;;;20.35;68.75;100312.81;5021194;28;45437;-78
2022/09/07 00:27:28;;;;;;;;;2.33;1.00;;;;;20.35;68.40;100307.50;5021853;28;45536;-78
2022/09/07 00:29:53;;;;;;;;;1.00;1.00;;;;;20.35;68.40;100311.91;5021073;28;45449;-77
2022/09/07 00:32:19;;;;;;;;;1.33;1.33;;;;;20.17;68.75;100283.84;5036552;28;45423;-78
2022/09/07 00:34:44;;;;;;;;;2.00;1.00;;;;;20.02;69.72;100296.41;5021231;28;45443;-79
2022/09/07 00:37:10;;;;;;;;;1.33;1.00;;;;;20.11;69.43;100307.81;5020254;28;45507;-78
2022/09/07 00:39:36;;;;;;;;;2.33;2.00;;;;;20.18;69.37;100310.34;5019773;28;47126;-77
2022/09/07 00:42:03;;;;;;;;;2.00;2.00;;;;;20.08;69.71;100284.00;5021023;28;45418;-79
2022/09/07 00:45:02;;;;;;;;;1.00;1.00;;;;;20.10;69.44;100296.34;5021278;28;45439;-76
2022/09/07 00:47:49;;;;;;;;;1.33;1.00;;;;;20.06;69.95;100303.44;5017916;28;45408;-78
2022/09/07 00:50:23;;;;;;;;;4.00;2.00;;;;;19.96;70.70;100298.28;5016813;28;45397;-78
2022/09/07 00:52:55;;;;;;;;;1.33;1.00;;;;;19.90;69.62;100285.97;5014797;28;45450;-78
2022/09/07 00:55:21;;;;;;;;;1.00;1.00;;;;;19.85;69.99;100279.84;5016508;28;45443;-79
2022/09/07 00:57:51;;;;;;;;;2.00;1.00;;;;;19.94;69.39;100298.28;5015325;28;45491;-79
2022/09/07 01:00:17;;;;;;;;;1.00;1.00;;;;;19.95;68.97;100300.03;5017487;28;45411;-79
2022/09/07 01:02:43;;;;;;;;;1.00;1.00;;;;;19.93;68.85;100295.66;5017470;28;45445;-78
2022/09/07 01:05:35;;;;;;;;;2.00;1.00;;;;;20.00;69.06;100303.53;5016231;28;45519;-78
2022/09/07 01:08:02;;;;;;;;;1.00;1.00;;;;;20.01;68.32;100286.69;5017087;28;45658;-73
2022/09/07 01:10:32;;;;;;;;;2.00;1.00;;;;;19.98;68.39;100286.75;5016374;28;45511;-78
2022/09/07 01:13:01;;;;;;;;;2.00;2.00;;;;;19.97;68.51;100287.63;5017786;28;45513;-79
2022/09/07 01:15:37;;;;;;;;;1.33;1.00;;;;;19.89;68.22;100262.13;5011360;28;45446;-78
2022/09/07 01:18:09;;;;;;;;;1.67;1.00;;;;;19.90;68.69;100270.06;5017715;28;45512;-79
2022/09/07 01:20:49;;;;;;;;;2.00;1.00;;;;;19.78;68.43;100254.34;5017149;28;46149;-78
2022/09/07 01:23:27;;;;;;;;;2.67;1.00;;;;;19.80;68.61;100260.50;5015544;28;45545;-78
2022/09/07 01:26:13;;;;;;;;;1.67;1.00;;;;;19.78;68.55;100257.84;5015433;28;45478;-77
2022/09/07 01:28:41;;;;;;;;;2.00;1.00;;;;;19.68;68.98;100250.88;5016203;28;45514;-78
2022/09/07 01:31:33;;;;;;;;;1.00;1.00;;;;;19.66;69.02;100260.63;5012988;28;45663;-78
2022/09/07 01:34:21;;;;;;;;;1.67;1.33;;;;;19.65;68.86;100264.16;5016467;28;45381;-77
2022/09/07 01:36:49;;;;;;;;;1.67;1.00;;;;;19.64;69.33;100265.94;5014524;28;45508;-78
2022/09/07 01:39:18;;;;;;;;;1.67;1.00;;;;;19.54;69.47;100252.81;5017439;28;45422;-78
2022/09/07 01:41:51;;;;;;;;;1.00;1.00;;;;;19.52;69.47;100257.22;5016724;28;46207;-77
2022/09/07 01:44:22;;;;;;;;;2.00;1.00;;;;;19.42;70.10;100243.25;5032292;28;45509;-78
2022/09/07 01:47:01;;;;;;;;;1.00;1.00;;;;;19.51;69.70;100243.13;5037486;28;45505;-78
2022/09/07 01:49:39;;;;;;;;;1.00;1.00;;;;;19.53;69.56;100232.50;4999241;28;45412;-78
2022/09/07 01:52:27;;;;;;;;;1.00;1.00;;;;;19.49;69.24;100231.66;4998396;28;46120;-75
2022/09/07 01:55:13;;;;;;;;;0.33;0.00;;;;;19.45;69.13;100212.28;4998614;28;45451;-78
2022/09/07 01:57:49;;;;;;;;;3.00;1.00;;;;;19.45;68.81;100224.66;4998876;28;45321;-78
2022/09/07 02:00:17;;;;;;;;;0.67;0.67;;;;;19.39;69.35;100214.13;4998872;28;45226;-78
2022/09/07 02:02:51;;;;;;;;;1.67;1.00;;;;;19.37;69.01;100223.84;4998123;28;45452;-78
2022/09/07 02:05:57;;;;;;;;;0.67;0.67;;;;;19.37;69.00;100218.56;4998601;28;45428;-78
2022/09/07 02:08:46;;;;;;;;;2.00;1.00;;;;;19.26;69.79;100231.94;4998498;28;45447;-79
2022/09/07 02:11:18;;;;;;;;;1.00;1.00;;;;;19.02;69.68;100198.63;4998469;28;45460;-78
2022/09/07 02:14:02;;;;;;;;;1.33;1.00;;;;;18.93;70.94;100231.38;4998096;28;45414;-78
2022/09/07 02:16:30;;;;;;;;;1.67;1.00;;;;;18.86;70.52;100221.72;4998450;28;45466;-79
2022/09/07 02:19:07;;;;;;;;;2.00;2.00;;;;;18.70;71.25;100194.47;4998294;28;45369;-79
2022/09/07 02:21:44;;;;;;;;;1.33;1.33;;;;;18.73;70.96;100190.94;4998702;28;45610;-79
2022/09/07 02:24:34;;;;;;;;;2.00;2.00;;;;;18.86;70.94;100209.38;4997942;28;45432;-78
2022/09/07 02:27:06;;;;;;;;;1.33;0.67;;;;;18.71;71.41;100176.84;4998180;28;45442;-78
2022/09/07 02:29:31;;;;;;;;;0.67;0.67;;;;;18.77;71.28;100176.81;4998289;28;45414;-78
2022/09/07 02:31:57;;;;;;;;;1.33;0.67;;;;;18.90;71.09;100191.72;4998325;28;45517;-78
2022/09/07 02:34:23;;;;;;;;;1.00;1.00;;;;;18.87;71.22;100179.34;4998104;28;45447;-79
2022/09/07 02:36:51;;;;;;;;;2.33;1.67;;;;;18.78;71.23;100162.66;4998180;28;45328;-81
2022/09/07 02:39:17;;;;;;;;;1.00;1.00;;;;;18.60;70.32;100138.16;4998260;28;45335;-81
2022/09/07 02:41:44;;;;;;;;;1.00;1.00;;;;;18.86;71.02;100172.34;4998285;28;45309;-78
2022/09/07 02:44:21;;;;;;;;;1.00;1.00;;;;;18.90;71.16;100177.56;4997938;28;46317;-79
2022/09/07 02:47:12;;;;;;;;;0.67;0.67;;;;;18.86;70.96;100172.34;4997798;28;45459;-79
2022/09/07 02:50:05;;;;;;;;;1.00;1.00;;;;;18.93;70.76;100174.91;4997962;28;45237;-78
2022/09/07 02:52:55;;;;;;;;;1.67;0.67;;;;;18.95;70.37;100179.28;4998438;28;45543;-79
2022/09/07 02:55:39;;;;;;;;;0.67;0.67;;;;;18.94;70.47;100176.66;4997709;28;46307;-79
2022/09/07 02:58:33;;;;;;;;;0.67;0.67;;;;;18.79;70.23;100154.75;4997931;28;45190;-78
2022/09/07 03:01:26;;;;;;;;;1.33;0.67;;;;;18.85;70.46;100161.75;4997926;28;45459;-79
2022/09/07 03:04:16;;;;;;;;;1.33;0.33;;;;;18.79;70.88;100159.13;4997887;28;45364;-78
2022/09/07 03:06:58;;;;;;;;;0.67;0.67;;;;;18.65;70.71;100136.31;4997587;28;46534;-78
2022/09/07 03:09:30;;;;;;;;;0.33;0.33;;;;;18.80;70.44;100148.56;4997608;28;45330;-78
2022/09/07 03:11:56;;;;;;;;;0.00;0.00;;;;;18.68;70.13;100125.72;4997624;28;45496;-79
2022/09/07 03:14:24;;;;;;;;;0.67;0.67;;;;;18.83;69.41;100140.59;4997252;28;45266;-79
2022/09/07 03:16:53;;;;;;;;;2.33;0.67;;;;;18.82;69.29;100151.19;4996880;28;45491;-78
2022/09/07 03:19:19;;;;;;;;;1.00;1.00;;;;;18.64;69.37;100129.31;5029188;28;45420;-78
2022/09/07 03:21:45;;;;;;;;;0.67;0.67;;;;;18.63;69.40;100132.81;4997202;28;45547;-78
2022/09/07 03:24:10;;;;;;;;;0.33;0.33;;;;;18.68;69.16;100138.06;4997517;28;45483;-77
2022/09/07 03:26:40;;;;;;;;;0.67;0.67;;;;;18.68;69.15;100143.34;4997671;28;45479;-78
2022/09/07 03:29:06;;;;;;;;;0.67;0.67;;;;;18.51;69.16;100121.50;4997655;28;45499;-79
2022/09/07 03:31:32;;;;;;;;;2.00;1.33;;;;;18.57;69.41;100153.19;4997143;28;45459;-79
2022/09/07 03:33:58;;;;;;;;;0.67;0.67;;;;;18.40;69.84;100140.09;4997661;28;45500;-78
2022/09/07 03:36:23;;;;;;;;;2.00;1.00;;;;;18.30;69.83;100128.69;4996943;28;46099;-79
2022/09/07 03:38:49;;;;;;;;;1.00;0.67;;;;;18.33;69.78;100144.56;4996907;28;45391;-78
2022/09/07 03:41:15;;;;;;;;;1.00;0.67;;;;;18.26;69.71;100133.16;4997339;28;45316;-78
2022/09/07 03:43:40;;;;;;;;;2.00;1.00;;;;;18.21;70.25;100137.59;4995954;28;46158;-78
2022/09/07 03:46:06;;;;;;;;;1.33;1.00;;;;;18.29;70.17;100146.34;4997289;28;46234;-76
2022/09/07 03:48:33;;;;;;;;;1.00;0.33;;;;;18.20;70.10;100125.25;4997299;28;45324;-78
2022/09/07 03:51:05;;;;;;;;;1.00;1.00;;;;;18.17;69.65;100124.44;4997237;28;45235;-78
2022/09/07 03:53:37;;;;;;;;;1.67;1.67;;;;;18.15;70.01;100145.56;5012611;28;45364;-78
2022/09/07 03:56:05;;;;;;;;;1.33;0.67;;;;;18.00;69.90;100122.75;4996980;28;45491;-78
2022/09/07 03:58:32;;;;;;;;;1.67;0.33;;;;;17.77;70.55;100082.41;4996834;28;45381;-77
2022/09/07 04:00:59;;;;;;;;;2.00;1.67;;;;;17.98;70.39;100119.25;4997045;28;45443;-78
2022/09/07 04:03:26;;;;;;;;;1.33;0.67;;;;;17.96;70.37;100122.81;5012214;28;45519;-79
2022/09/07 04:05:51;;;;;;;;;2.67;0.67;;;;;17.85;70.48;100107.03;4995283;28;46790;-78
2022/09/07 04:08:17;;;;;;;;;0.67;0.67;;;;;17.91;70.66;100099.06;4996569;28;45496;-78
2022/09/07 04:10:43;;;;;;;;;1.67;1.00;;;;;17.90;70.52;100105.22;4996911;28;45274;-78
2022/09/07 04:13:09;;;;;;;;;0.67;0.67;;;;;17.98;70.95;100119.25;4997391;28;45345;-78
2022/09/07 04:15:35;;;;;;;;;0.67;0.67;;;;;17.76;71.13;100104.41;5028726;28;47671;-78
2022/09/07 04:18:01;;;;;;;;;0.67;0.67;;;;;17.82;70.58;100112.28;4995159;28;45580;-78
2022/09/07 04:20:27;;;;;;;;;1.67;0.67;;;;;17.86;70.81;100112.28;4996854;28;45375;-78
2022/09/07 04:22:53;;;;;;;;;1.00;1.00;;;;;17.85;70.64;100107.91;4997169;28;45343;-79
2022/09/07 04:25:18;;;;;;;;;2.67;1.67;;;;;17.80;70.23;100093.81;4996469;28;46099;-81
2022/09/07 04:27:44;;;;;;;;;2.33;2.33;;;;;17.89;70.32;100103.47;4999626;28;45310;-78
2022/09/07 04:30:10;;;;;;;;;2.67;1.67;;;;;17.86;70.39;100104.34;4999041;28;45540;-78
2022/09/07 04:32:36;;;;;;;;;0.67;0.67;;;;;17.86;70.35;100112.28;4999157;28;45403;-78
2022/09/07 04:35:02;;;;;;;;;1.67;1.00;;;;;17.85;70.33;100105.25;4999726;28;46168;-78
2022/09/07 04:37:27;;;;;;;;;1.33;1.00;;;;;17.84;70.03;100102.63;4999947;28;45367;-78
2022/09/07 04:39:53;;;;;;;;;0.33;0.33;;;;;17.76;69.80;100092.06;4999993;28;45496;-79
2022/09/07 04:42:19;;;;;;;;;1.33;0.67;;;;;17.80;69.91;100112.28;4999965;28;45416;-78
2022/09/07 04:44:48;;;;;;;;;2.67;1.67;;;;;17.78;69.89;100113.22;5014934;28;45518;-78
2022/09/07 04:47:14;;;;;;;;;1.67;1.67;;;;;17.88;70.15;100141.34;4999785;28;45519;-78
2022/09/07 04:49:39;;;;;;;;;1.67;1.67;;;;;17.79;70.00;100109.69;4999997;28;45388;-78
2022/09/07 04:52:05;;;;;;;;;0.67;0.67;;;;;17.82;69.75;100110.53;4998629;28;45560;-78
2022/09/07 04:54:30;;;;;;;;;0.67;0.67;;;;;17.82;69.88;100104.38;4999126;28;45692;-79
2022/09/07 04:56:56;;;;;;;;;2.00;1.67;;;;;17.82;69.64;100092.03;4999472;28;45413;-78
2022/09/07 04:59:21;;;;;;;;;6.00;5.33;;;;;17.88;69.97;100118.44;5031491;28;45242;-78
2022/09/07 05:01:47;;;;;;;;;0.67;0.67;;;;;17.82;69.87;100113.16;4998593;28;45354;-78
2022/09/07 05:04:12;;;;;;;;;1.67;1.67;;;;;17.84;69.64;100114.06;4999641;28;45638;-71
2022/09/07 05:06:38;;;;;;;;;1.00;1.00;;;;;17.88;69.42;100130.78;4999746;28;45420;-78
2022/09/07 05:09:03;;;;;;;;;1.67;1.67;;;;;17.86;69.29;100107.00;4999357;28;45549;-81
2022/09/07 05:11:29;;;;;;;;;1.00;1.00;;;;;17.84;69.23;100118.47;4999730;28;45253;-81
2022/09/07 05:13:59;;;;;;;;;3.00;1.67;;;;;17.88;69.32;100120.22;4998044;28;45915;-81
2022/09/07 05:16:25;;;;;;;;;2.00;2.00;;;;;17.91;68.99;100124.63;4999362;28;45305;-80
2022/09/07 05:18:53;;;;;;;;;1.67;1.67;;;;;17.82;69.08;100113.16;4999472;28;45345;-80
2022/09/07 05:21:21;;;;;;;;;1.67;1.67;;;;;17.87;69.07;100121.97;4999792;28;45655;-80
2022/09/07 05:23:52;;;;;;;;;0.67;0.67;;;;;17.82;68.99;100110.53;4998983;28;45432;-79
2022/09/07 05:26:19;;;;;;;;;3.00;1.67;;;;;17.84;69.19;100107.91;4999134;28;45311;-79
2022/09/07 05:28:45;;;;;;;;;2.00;2.00;;;;;17.73;69.70;100109.72;4999164;28;45442;-77
2022/09/07 05:31:16;;;;;;;;;3.00;3.00;;;;;17.72;69.99;100110.59;5004456;28;45400;-79
2022/09/07 05:33:52;;;;;;;;;6.67;5.33;;;;;17.49;70.38;100091.38;5017112;28;45917;-79
2022/09/07 05:36:19;;;;;;;;;4.00;3.33;;;;;17.67;70.12;100110.66;5015436;28;45341;-72
2022/09/07 05:38:45;;;;;;;;;2.00;2.00;;;;;17.45;71.14;100121.31;5016130;28;46592;-78
2022/09/07 05:41:18;;;;;;;;;2.00;1.33;;;;;17.40;71.32;100128.38;5017303;28;45379;-76
2022/09/07 05:43:44;;;;;;;;;2.67;1.67;;;;;17.35;71.33;100119.63;5018715;28;46042;-71
2022/09/07 05:46:11;;;;;;;;;1.67;1.00;;;;;17.42;70.99;100126.59;5019022;28;45502;-78
2022/09/07 05:48:37;;;;;;;;;2.00;2.00;;;;;17.45;71.15;100131.88;5018869;28;45304;-79
2022/09/07 05:51:04;;;;;;;;;1.00;1.00;;;;;17.40;71.24;100111.66;5033759;28;45534;-79
2022/09/07 05:53:32;;;;;;;;;2.33;2.33;;;;;17.44;71.04;100106.34;5016999;28;48006;-78
2022/09/07 05:55:59;;;;;;;;;3.00;2.00;;;;;17.56;70.99;100110.69;5018550;28;45229;-79
2022/09/07 05:58:26;;;;;;;;;2.00;1.00;;;;;17.59;70.71;100126.53;5017333;28;45298;-79
2022/09/07 06:00:52;;;;;;;;;2.00;2.00;;;;;17.61;70.62;100118.59;5018338;28;45454;-79
2022/09/07 06:03:17;;;;;;;;;1.67;1.33;;;;;17.62;70.62;100117.69;5018203;28;45265;-79
2022/09/07 06:05:43;;;;;;;;;2.00;2.00;;;;;17.46;70.74;100094.00;5018560;28;45304;-79
2022/09/07 06:08:08;;;;;;;;;2.00;2.00;;;;;17.69;70.48;100125.59;5018542;28;45253;-79
2022/09/07 06:10:37;;;;;;;;;2.00;2.00;;;;;17.68;69.71;100121.19;5018428;28;45406;-79
2022/09/07 06:13:03;;;;;;;;;2.67;2.00;;;;;17.88;69.41;100144.00;5016505;28;45488;-69
2022/09/07 06:15:32;;;;;;;;;1.00;1.00;;;;;17.95;69.31;100132.50;5017424;28;45528;-78
2022/09/07 06:17:58;;;;;;;;;2.00;2.00;;;;;17.99;69.45;100126.31;5017164;28;45512;-70
2022/09/07 06:20:24;;;;;;;;;2.67;2.67;;;;;18.00;68.87;100114.84;5032488;28;46717;-78
2022/09/07 06:22:49;;;;;;;;;2.00;1.67;;;;;18.07;68.62;100095.41;5014501;28;46629;-78
2022/09/07 06:25:15;;;;;;;;;2.33;2.33;;;;;18.25;68.18;100099.66;5017403;28;45470;-79
2022/09/07 06:27:40;;;;;;;;;10.00;7.33;;;;;18.49;67.91;100109.13;5016944;28;45491;-79
2022/09/07 06:30:06;;;;;;;;;3.67;2.00;;;;;18.62;67.45;100104.63;5017186;28;46357;-79
2022/09/07 06:32:35;;;;;;;;;2.00;2.00;;;;;18.88;66.76;100119.38;5031990;28;45529;-79
2022/09/07 06:35:01;;;;;;;;;1.33;0.67;;;;;19.03;66.14;100118.31;5016892;28;45497;-77
2022/09/07 06:37:26;;;;;;;;;3.00;2.33;;;;;19.08;65.96;100119.16;5032243;28;45398;-80
2022/09/07 06:39:52;;;;;;;;;2.67;2.00;;;;;18.94;66.18;100095.50;5017325;28;45459;-81
2022/09/07 06:42:17;;;;;;;;;11.00;8.33;;;;;18.90;66.15;100093.78;5017234;28;45514;-69
2022/09/07 06:44:43;;;;;;;;;21.00;17.25;;;;;18.86;66.92;100113.22;5017048;28;45280;-73
2022/09/07 06:47:09;;;;;;;;;11.67;9.00;;;;;18.95;66.66;100106.94;5015455;28;45532;-74
2022/09/07 06:49:35;;;;;;;;;4.33;3.67;;;;;19.10;66.16;100112.06;5017290;28;45539;-74
2022/09/07 06:52:00;;;;;;;;;2.00;2.00;;;;;19.14;65.96;100105.84;5015187;28;45409;-75
2022/09/07 06:54:26;;;;;;;;;2.33;1.00;;;;;19.27;65.45;100112.72;5013063;28;45490;-74
2022/09/07 06:56:52;;;;;;;;;3.00;2.00;;;;;19.26;65.34;100102.19;5015563;28;45371;-73
2022/09/07 06:59:17;;;;;;;;;4.33;4.33;;;;;20.13;64.23;100115.06;5016014;28;45400;-75
2022/09/07 07:01:43;;;;;;;;;5.67;5.00;;;;;21.68;58.82;100095.31;5014822;28;46949;-74
2022/09/07 07:04:08;;;;;;;;;3.67;3.33;;;;;21.67;59.12;100082.94;5015443;28;45848;-73
2022/09/07 07:06:36;;;;;;;;;2.00;2.00;;;;;21.52;59.38;100077.06;5016101;28;45554;-73
2022/09/07 07:09:03;;;;;;;;;2.00;2.00;;;;;24.07;55.93;100093.19;5031771;28;45583;-74
2022/09/07 07:11:29;;;;;;;;;2.00;2.00;;;;;25.28;49.37;100071.16;5015904;28;46402;-74
2022/09/07 07:13:56;;;;;;;;;1.00;1.00;;;;;26.36;48.52;100089.09;5015978;28;46016;-74
2022/09/07 07:16:23;;;;;;;;;2.00;1.00;;;;;26.04;48.88;100094.00;5016194;28;45385;-73
2022/09/07 07:18:51;;;;;;;;;2.00;2.00;;;;;25.16;50.91;100092.03;5031907;28;45876;-74
2022/09/07 07:21:17;;;;;;;;;2.33;1.33;;;;;24.53;51.60;100078.31;5015475;28;45986;-73
2022/09/07 07:23:43;;;;;;;;;1.00;1.00;;;;;24.32;52.04;100090.56;5015653;28;45697;-74
2022/09/07 07:26:14;;;;;;;;;2.00;2.00;;;;;24.80;50.67;100067.56;5016383;28;45305;-74
2022/09/07 07:28:44;;;;;;;;;2.67;2.00;;;;;25.69;48.33;100085.59;5016367;28;45519;-74
2022/09/07 07:31:10;;;;;;;;;2.00;1.00;;;;;25.99;46.08;100088.84;5015839;28;45519;-73
2022/09/07 07:33:36;;;;;;;;;4.33;2.67;;;;;25.65;47.43;100073.28;5016618;28;45387;-74
2022/09/07 07:36:12;;;;;;;;;2.33;2.33;;;;;26.66;45.05;100076.25;5016751;28;45365;-74
2022/09/07 07:38:39;;;;;;;;;3.00;3.00;;;;;25.39;47.61;100083.19;5032310;28;45304;-80
2022/09/07 07:41:05;;;;;;;;;3.33;3.00;;;;;24.58;50.16;100056.78;5015337;28;45949;-78
2022/09/07 07:43:30;;;;;;;;;2.00;2.00;;;;;24.27;51.90;100067.63;5015580;28;45459;-78
2022/09/07 07:45:58;;;;;;;;;3.67;2.33;;;;;23.85;52.87;100055.66;5013384;28;45418;-79
2022/09/07 07:48:24;;;;;;;;;2.00;2.00;;;;;23.54;53.95;100053.09;5016242;28;45545;-76
2022/09/07 07:51:01;;;;;;;;;2.00;2.00;;;;;23.48;54.77;100078.16;5016044;28;46209;-68
2022/09/07 07:53:27;;;;;;;;;2.00;2.00;;;;;23.38;55.51;100108.66;5014458;28;45327;-77
2022/09/07 07:55:53;;;;;;;;;2.33;2.00;;;;;23.21;55.37;100102.03;5015395;28;45383;-77
2022/09/07 07:58:19;;;;;;;;;2.00;1.00;;;;;23.22;56.27;100084.25;5016093;28;45227;-76
2022/09/07 08:00:46;;;;;;;;;2.00;1.67;;;;;23.37;55.53;100096.25;5015023;28;46924;-77
2022/09/07 08:03:12;;;;;;;;;0.67;0.67;;;;;23.94;54.36;100099.84;5019685;28;45494;-77
2022/09/07 08:05:37;;;;;;;;;1.00;1.00;;;;;24.08;52.80;100072.72;5019501;28;45478;-76
2022/09/07 08:08:03;;;;;;;;;1.00;1.00;;;;;24.61;52.34;100104.72;5019925;28;45548;-77
2022/09/07 08:10:29;;;;;;;;;2.00;2.00;;;;;25.39;49.94;100093.88;5019321;28;45537;-77
2022/09/07 08:12:55;;;;;;;;;2.00;2.00;;;;;25.75;50.56;100084.47;5019283;28;45501;-77
2022/09/07 08:15:21;;;;;;;;;2.00;2.00;;;;;26.06;49.57;100067.19;5019819;28;45520;-77
2022/09/07 08:17:47;;;;;;;;;3.00;2.00;;;;;25.56;50.46;100050.41;5035241;28;45350;-77
2022/09/07 08:20:15;;;;;;;;;4.00;2.00;;;;;25.29;51.19;100080.94;5019316;28;46066;-76
2022/09/07 08:22:41;;;;;;;;;13.00;12.67;;;;;25.01;51.71;100063.25;5019052;28;45371;-74
2022/09/07 08:25:08;;;;;;;;;10.67;7.67;;;;;24.78;53.12;100067.63;5019036;28;45340;-75
2022/09/07 08:27:34;;;;;;;;;5.00;5.00;;;;;24.22;53.63;100009.94;5019647;28;45387;-77
2022/09/07 08:30:00;;;;;;;;;4.00;4.00;;;;;24.12;54.96;100080.56;5019171;28;46031;-76
2022/09/07 08:32:28;;;;;;;;;4.00;3.67;;;;;24.18;55.71;100103.50;5018933;28;45423;-72
2022/09/07 08:34:54;;;;;;;;;3.00;3.00;;;;;25.93;52.85;100099.81;5017543;28;45491;-76
2022/09/07 08:37:19;;;;;;;;;3.00;2.67;;;;;28.96;46.65;100117.06;5019722;28;45332;-77
2022/09/07 08:39:45;;;;;;;;;2.00;1.33;;;;;31.39;41.02;100112.91;5018707;28;45515;-77
2022/09/07 08:42:43;;;;;;;;;2.00;2.00;;;;;30.74;42.24;100122.31;5018809;28;45340;-66
2022/09/07 08:45:15;;;;;;;;;3.33;3.00;;;;;29.80;42.55;100106.22;5020764;28;45921;-79
2022/09/07 08:47:48;;;;;;;;;4.00;3.33;;;;;28.86;43.95;100083.56;5016595;28;46488;-73
2022/09/07 08:50:30;;;;;;;;;3.00;3.00;;;;;28.16;45.46;100096.97;5016763;28;45558;-76
2022/09/07 08:53:12;;;;;;;;;4.00;4.00;;;;;27.00;47.21;99986.28;5017298;28;45494;-76
2022/09/07 08:56:03;;;;;;;;;4.00;3.67;;;;;27.55;47.33;100087.38;5017086;28;45450;-76
2022/09/07 08:58:35;;;;;;;;;4.33;2.67;;;;;27.51;47.82;100094.72;5017400;28;45489;-76
2022/09/07 09:01:01;;;;;;;;;2.00;2.00;;;;;27.33;47.46;100033.91;5016317;28;45540;-74
2022/09/07 09:03:30;;;;;;;;;6.00;6.00;;;;;28.02;46.80;100083.38;5016985;28;45446;-77
2022/09/07 09:06:17;;;;;;;;;4.00;3.00;;;;;28.80;46.27;100100.03;5017227;28;45542;-76
2022/09/07 09:08:49;;;;;;;;;3.00;3.00;;;;;30.24;43.14;100096.50;5016785;28;45519;-77
2022/09/07 09:11:20;;;;;;;;;4.00;3.00;;;;;30.54;43.17;100101.97;5016808;28;46117;-77
2022/09/07 09:13:53;;;;;;;;;2.33;2.33;;;;;30.73;43.16;100091.75;5016230;28;45351;-77
2022/09/07 09:16:30;;;;;;;;;7.33;6.33;;;;;30.89;41.31;100085.47;5016567;28;45284;-77
2022/09/07 09:19:14;;;;;;;;;3.33;2.33;;;;;31.08;41.81;100087.91;5049484;27;45510;-76
2022/09/07 09:21:40;;;;;;;;;2.67;2.00;;;;;31.36;39.35;100100.50;5016447;28;46225;-78
2022/09/07 09:24:18;;;;;;;;;3.00;3.00;;;;;31.13;38.64;100089.31;5016997;28;45574;-78
2022/09/07 09:26:51;;;;;;;;;2.00;2.00;;;;;30.52;38.68;100012.19;5015799;28;45435;-76
2022/09/07 09:29:20;;;;;;;;;2.00;1.33;;;;;31.74;38.28;100067.47;5016085;28;45501;-78
2022/09/07 09:31:45;;;;;;;;;2.33;1.00;;;;;33.70;34.03;100067.44;5016809;28;46036;-78
2022/09/07 09:34:17;;;;;;;;;1.67;1.67;;;;;34.65;32.46;100081.91;5015739;28;45677;-78
2022/09/07 09:36:48;;;;;;;;;4.67;3.00;;;;;34.43;31.31;100082.72;5015996;28;45547;-77
2022/09/07 09:39:25;;;;;;;;;3.00;3.00;;;;;33.93;33.03;100082.00;5015709;28;45622;-74
2022/09/07 09:41:50;;;;;;;;;3.33;2.67;;;;;33.68;32.93;100091.94;5013407;28;46106;-78
2022/09/07 09:44:17;;;;;;;;;2.00;1.67;;;;;33.93;31.08;100087.41;5015429;28;45638;-78
2022/09/07 09:46:49;;;;;;;;;1.67;1.67;;;;;34.49;31.98;100076.81;5014817;28;45503;-77
2022/09/07 09:49:22;;;;;;;;;2.33;2.00;;;;;35.69;29.58;100064.56;5015762;28;45438;-78
2022/09/07 09:51:55;;;;;;;;;1.67;1.67;;;;;35.49;28.82;100065.31;5028410;28;47259;-80
2022/09/07 09:54:32;;;;;;;;;2.00;2.00;;;;;36.19;27.03;100051.31;5014579;28;45433;-78
2022/09/07 09:56:58;;;;;;;;;3.67;3.33;;;;;36.31;27.17;100057.56;5015383;28;45435;-71
2022/09/07 09:59:28;;;;;;;;;1.00;1.00;;;;;35.84;28.26;100054.28;5018137;28;45439;-77
2022/09/07 10:01:54;;;;;;;;;2.00;2.00;;;;;34.90;29.65;100061.88;5012753;28;45842;-80
2022/09/07 10:04:22;;;;;;;;;6.33;6.00;;;;;34.30;30.61;100068.34;5014952;28;45384;-77
2022/09/07 10:06:51;;;;;;;;;2.33;1.67;;;;;34.34;30.50;100054.47;5009006;28;45674;-78
2022/09/07 10:09:29;;;;;;;;;12.67;11.33;;;;;36.16;29.39;100056.16;5030904;28;45323;-79
2022/09/07 10:12:03;;;;;;;;;4.00;3.33;;;;;35.95;29.24;100047.91;5016007;28;46190;-76
2022/09/07 10:14:43;;;;;;;;;2.67;2.00;;;;;35.76;27.91;100054.91;5015821;28;45363;-75
2022/09/07 10:17:27;;;;;;;;;5.67;5.00;;;;;35.62;26.97;100063.31;5015756;28;45508;-77
2022/09/07 10:19:59;;;;;;;;;2.33;1.67;;;;;35.77;26.44;100059.34;5016589;28;45498;-76
2022/09/07 10:22:37;;;;;;;;;1.33;0.67;;;;;35.70;26.52;100050.00;5016517;28;45467;-75
2022/09/07 10:25:24;;;;;;;;;3.33;2.67;;;;;36.66;25.85;100064.53;5016425;28;45320;-73
2022/09/07 10:28:12;;;;;;;;;1.67;1.33;;;;;37.69;24.01;100062.72;5016474;28;45516;-74
2022/09/07 10:31:05;;;;;;;;;11.67;11.33;;;;;37.40;24.72;100055.28;5017672;28;45567;-75
2022/09/07 10:33:53;;;;;;;;;4.00;3.67;;;;;36.37;24.94;100050.72;5016592;28;46086;-68
2022/09/07 10:36:50;;;;;;;;;4.00;4.00;;;;;35.53;27.32;100058.63;5017359;28;45305;-67
2022/09/07 10:39:19;;;;;;;;;1.00;1.00;;;;;34.76;27.46;100053.94;5017565;28;45363;-76
2022/09/07 10:41:53;;;;;;;;;1.67;1.67;;;;;34.22;27.95;100049.97;5016866;28;45301;-68
2022/09/07 10:44:49;;;;;;;;;2.00;1.67;;;;;33.83;29.28;100031.19;5016524;28;45411;-67
2022/09/07 10:47:29;;;;;;;;;39.00;30.75;;;;;33.57;28.97;100045.81;5016638;28;45312;-69
2022/09/07 10:50:06;;;;;;;;;5.33;4.67;;;;;33.40;29.29;100028.94;5017153;28;45375;-76
2022/09/07 10:52:53;;;;;;;;;10.00;7.33;;;;;33.55;30.48;100017.97;5016654;28;45661;-74
2022/09/07 10:55:31;;;;;;;;;3.67;3.33;;;;;33.74;31.37;100022.88;5016640;28;45510;-76
2022/09/07 10:57:56;;;;;;;;;11.33;10.00;;;;;33.51;31.18;100016.47;5017165;28;45307;-77
2022/09/07 11:00:23;;;;;;;;;1.00;1.00;;;;;33.16;31.79;99993.72;5016782;28;45491;-76
2022/09/07 11:03:03;;;;;;;;;1.67;1.67;;;;;33.15;31.67;100005.53;5017051;28;45262;-76
2022/09/07 11:06:06;;;;;;;;;3.67;3.33;;;;;33.23;31.30;100003.13;5016931;28;45420;-70
2022/09/07 11:08:55;;;;;;;;;2.67;2.67;;;;;33.31;31.10;99989.03;5031466;28;45482;-72
2022/09/07 11:11:32;;;;;;;;;3.00;3.00;;;;;33.73;30.75;100004.94;5016506;28;45298;-71
2022/09/07 11:14:07;;;;;;;;;0.00;0.00;;;;;34.13;27.77;99991.03;5016941;28;45350;-73
2022/09/07 11:16:37;;;;;;;;;1.00;1.00;;;;;34.25;27.56;99993.66;5016408;28;45513;-76
2022/09/07 11:19:38;;;;;;;;;3.00;3.00;;;;;34.53;28.03;99999.63;5016350;28;45499;-76
2022/09/07 11:22:26;;;;;;;;;1.00;1.00;;;;;34.74;28.01;99959.13;5016610;28;45407;-77
2022/09/07 11:25:13;;;;;;;;;3.00;2.00;;;;;35.12;27.37;99966.00;5016639;28;45469;-77
2022/09/07 11:28:04;;;;;;;;;1.33;1.00;;;;;34.97;25.76;99981.66;5016608;28;46121;-77
2022/09/07 11:30:34;;;;;;;;;0.67;0.67;;;;;34.57;27.31;99976.72;5016582;28;45445;-69
2022/09/07 11:33:15;;;;;;;;;2.33;2.00;;;;;34.52;28.30;99980.78;5016425;28;45484;-77
2022/09/07 11:36:01;;;;;;;;;6.00;6.00;;;;;34.47;28.56;99975.72;5015501;28;45324;-76
2022/09/07 11:39:02;;;;;;;;;3.00;2.33;;;;;34.41;29.37;99981.63;5016004;28;45570;-77
2022/09/07 11:41:41;;;;;;;;;2.00;2.00;;;;;34.34;28.80;99980.38;5018003;28;45283;-78
2022/09/07 11:44:25;;;;;;;;;2.67;2.67;;;;;34.43;28.42;99985.09;5016221;28;45437;-77